createdAt,value
2022-08-28T00:00:01.000Z,92.00
2022-08-28T00:01:01.000Z,92.40
2022-08-28T00:02:01.000Z,92.40
2022-08-28T00:03:01.000Z,92.20
2022-08-28T00:04:01.000Z,92.91
2022-08-28T00:05:01.000Z,92.91
2022-08-28T00:06:01.000Z,92.71
2022-08-28T00:07:01.000Z,92.20
2022-08-28T00:08:01.000Z,92.10
2022-08-28T00:09:01.000Z,92.00
2022-08-28T00:10:01.000Z,92.30
2022-08-28T00:11:01.000Z,91.74
2022-08-28T00:12:01.000Z,91.85
2022-08-28T00:13:01.000Z,91.85
2022-08-28T00:14:02.000Z,91.85
2022-08-28T00:15:02.000Z,90.44
2022-08-28T00:16:02.000Z,90.94
2022-08-28T00:17:02.000Z,90.44
2022-08-28T00:18:02.000Z,90.03
2022-08-28T00:19:02.000Z,89.63
2022-08-28T00:20:02.000Z,89.83
2022-08-28T00:21:02.000Z,89.63
2022-08-28T00:22:02.000Z,89.43
2022-08-28T00:23:02.000Z,89.83
2022-08-28T00:24:02.000Z,89.03
2022-08-28T00:25:02.000Z,88.92
2022-08-28T00:26:02.000Z,89.53
2022-08-28T00:27:02.000Z,90.03
2022-08-28T00:28:02.000Z,89.32
2022-08-28T00:29:02.000Z,89.77
2022-08-28T00:30:02.000Z,89.87
2022-08-28T00:31:02.000Z,89.97
2022-08-28T00:32:02.000Z,89.26
2022-08-28T00:33:02.000Z,89.17
2022-08-28T00:34:02.000Z,89.57
2022-08-28T00:35:03.000Z,89.67
2022-08-28T00:36:03.000Z,89.87
2022-08-28T00:37:03.000Z,89.97
2022-08-28T00:38:03.000Z,89.87
2022-08-28T00:39:03.000Z,89.97
2022-08-28T00:40:03.000Z,89.97
2022-08-28T00:41:03.000Z,89.67
2022-08-28T00:42:03.000Z,89.57
2022-08-28T00:43:03.000Z,90.07
2022-08-28T00:44:03.000Z,89.87
2022-08-28T00:45:03.000Z,90.28
2022-08-28T00:46:03.000Z,90.42
2022-08-28T00:47:03.000Z,90.42
2022-08-28T00:48:03.000Z,90.92
2022-08-28T00:49:03.000Z,90.42
2022-08-28T00:50:03.000Z,90.92
2022-08-28T00:51:03.000Z,91.02
2022-08-28T00:52:03.000Z,90.52
2022-08-28T00:53:04.000Z,90.62
2022-08-28T00:54:04.000Z,91.13
2022-08-28T00:55:04.000Z,91.13
2022-08-28T00:56:04.000Z,90.92
2022-08-28T00:57:04.000Z,91.06
2022-08-28T00:58:04.000Z,91.27
2022-08-28T00:59:04.000Z,91.27
2022-08-28T01:00:04.000Z,91.37
2022-08-28T01:01:04.000Z,91.77
2022-08-28T01:02:04.000Z,91.57
2022-08-28T01:03:04.000Z,91.17
2022-08-28T01:04:04.000Z,91.57
2022-08-28T01:04:04.000Z,91.57
2022-08-28T01:05:04.000Z,91.47
2022-08-28T01:05:04.000Z,91.47
2022-08-28T01:06:04.000Z,91.91
2022-08-28T01:06:04.000Z,91.91
2022-08-28T01:07:04.000Z,91.82
2022-08-28T01:07:04.000Z,91.82
2022-08-28T01:08:04.000Z,92.02
2022-08-28T01:08:04.000Z,92.02
2022-08-28T01:09:04.000Z,92.12
2022-08-28T01:10:04.000Z,92.22
2022-08-28T01:11:04.000Z,92.32
2022-08-28T01:12:05.000Z,92.62
2022-08-28T01:13:05.000Z,92.42
2022-08-28T01:14:05.000Z,92.26
2022-08-28T01:15:05.000Z,92.16
2022-08-28T01:16:05.000Z,91.96
2022-08-28T01:17:05.000Z,92.26
2022-08-28T01:18:05.000Z,92.36
2022-08-28T01:19:05.000Z,92.36
2022-08-28T01:20:05.000Z,92.26
2022-08-28T01:21:05.000Z,92.30
2022-08-28T01:22:05.000Z,92.36
2022-08-28T01:23:05.000Z,92.41
2022-08-28T01:24:05.000Z,92.21
2022-08-28T01:25:05.000Z,92.50
2022-08-28T01:26:05.000Z,92.41
2022-08-28T01:27:05.000Z,92.21
2022-08-28T01:28:05.000Z,92.10
2022-08-28T01:29:06.000Z,92.41
2022-08-28T01:30:06.000Z,92.41
2022-08-28T01:31:06.000Z,92.41
2022-08-28T01:32:06.000Z,92.21
2022-08-28T01:33:06.000Z,92.10
2022-08-28T01:34:06.000Z,91.80
2022-08-28T01:35:06.000Z,91.90
2022-08-28T01:36:06.000Z,91.70
2022-08-28T01:37:06.000Z,91.70
2022-08-28T01:38:06.000Z,91.90
2022-08-28T01:39:06.000Z,91.60
2022-08-28T01:40:06.000Z,91.50
2022-08-28T01:41:06.000Z,91.90
2022-08-28T01:42:06.000Z,91.90
2022-08-28T01:43:06.000Z,91.50
2022-08-28T01:44:06.000Z,91.60
2022-08-28T01:45:07.000Z,91.70
2022-08-28T01:46:07.000Z,91.39
2022-08-28T01:47:07.000Z,91.90
2022-08-28T01:48:07.000Z,91.80
2022-08-28T01:49:07.000Z,91.64
2022-08-28T01:50:07.000Z,91.70
2022-08-28T01:51:07.000Z,92.05
2022-08-28T01:52:07.000Z,92.35
2022-08-28T01:53:07.000Z,92.65
2022-08-28T01:54:07.000Z,92.65
2022-08-28T01:55:07.000Z,92.45
2022-08-28T01:56:07.000Z,92.25
2022-08-28T01:57:07.000Z,92.55
2022-08-28T01:58:07.000Z,92.45
2022-08-28T01:59:07.000Z,92.45
2022-08-28T02:00:07.000Z,92.45
2022-08-28T02:01:08.000Z,92.29
2022-08-28T02:02:08.000Z,92.49
2022-08-28T02:03:08.000Z,91.78
2022-08-28T02:04:08.000Z,91.28
2022-08-28T02:05:08.000Z,91.49
2022-08-28T02:06:08.000Z,91.58
2022-08-28T02:07:08.000Z,91.58
2022-08-28T02:08:08.000Z,90.88
2022-08-28T02:09:08.000Z,90.98
2022-08-28T02:10:08.000Z,91.08
2022-08-28T02:11:08.000Z,90.67
2022-08-28T02:12:08.000Z,91.08
2022-08-28T02:13:08.000Z,90.98
2022-08-28T02:14:08.000Z,91.49
2022-08-28T02:15:08.000Z,91.28
2022-08-28T02:16:08.000Z,90.98
2022-08-28T02:17:09.000Z,90.78
2022-08-28T02:18:09.000Z,90.98
2022-08-28T02:19:09.000Z,90.88
2022-08-28T02:20:09.000Z,91.18
2022-08-28T02:21:09.000Z,91.38
2022-08-28T02:22:09.000Z,91.18
2022-08-28T02:23:09.000Z,90.78
2022-08-28T02:24:09.000Z,90.88
2022-08-28T02:25:09.000Z,90.47
2022-08-28T02:26:09.000Z,90.78
2022-08-28T02:27:09.000Z,90.07
2022-08-28T02:28:09.000Z,90.27
2022-08-28T02:29:09.000Z,90.37
2022-08-28T02:30:09.000Z,90.07
2022-08-28T02:31:09.000Z,90.88
2022-08-28T02:32:09.000Z,90.78
2022-08-28T02:33:10.000Z,90.27
2022-08-28T02:34:10.000Z,90.07
2022-08-28T02:35:10.000Z,90.27
2022-08-28T02:36:10.000Z,90.07
2022-08-28T02:37:10.000Z,90.47
2022-08-28T02:38:10.000Z,90.27
2022-08-28T02:39:10.000Z,90.58
2022-08-28T02:40:10.000Z,89.87
2022-08-28T02:41:10.000Z,89.81
2022-08-28T02:42:10.000Z,89.46
2022-08-28T02:43:10.000Z,90.07
2022-08-28T02:44:10.000Z,89.87
2022-08-28T02:45:10.000Z,90.67
2022-08-28T02:46:10.000Z,90.37
2022-08-28T02:47:10.000Z,90.58
2022-08-28T02:48:10.000Z,90.47
2022-08-28T02:49:10.000Z,90.78
2022-08-28T02:50:11.000Z,90.37
2022-08-28T02:51:11.000Z,90.67
2022-08-28T02:52:11.000Z,90.67
2022-08-28T02:53:11.000Z,90.67
2022-08-28T02:54:11.000Z,90.78
2022-08-28T02:55:11.000Z,91.08
2022-08-28T02:56:11.000Z,90.58
2022-08-28T02:57:11.000Z,90.62
2022-08-28T02:58:11.000Z,88.90
2022-08-28T02:59:11.000Z,89.50
2022-08-28T03:00:11.000Z,89.30
2022-08-28T03:01:11.000Z,89.10
2022-08-28T03:02:11.000Z,88.90
2022-08-28T03:03:11.000Z,89.30
2022-08-28T03:04:11.000Z,89.40
2022-08-28T03:05:11.000Z,88.90
2022-08-28T03:06:12.000Z,89.30
2022-08-28T03:07:12.000Z,89.65
2022-08-28T03:08:12.000Z,89.75
2022-08-28T03:09:12.000Z,90.16
2022-08-28T03:10:12.000Z,90.25
2022-08-28T03:11:12.000Z,90.36
2022-08-28T03:12:12.000Z,90.36
2022-08-28T03:13:12.000Z,90.45
2022-08-28T03:14:12.000Z,90.36
2022-08-28T03:15:12.000Z,90.70
2022-08-28T03:16:12.000Z,90.60
2022-08-28T03:17:12.000Z,90.30
2022-08-28T03:18:12.000Z,90.40
2022-08-28T03:19:12.000Z,90.50
2022-08-28T03:20:12.000Z,90.30
2022-08-28T03:21:12.000Z,89.99
2022-08-28T03:22:13.000Z,90.20
2022-08-28T03:23:13.000Z,90.30
2022-08-28T03:24:13.000Z,90.50
2022-08-28T03:25:13.000Z,90.40
2022-08-28T03:26:13.000Z,90.70
2022-08-28T03:27:13.000Z,91.11
2022-08-28T03:28:13.000Z,90.91
2022-08-28T03:29:13.000Z,90.91
2022-08-28T03:30:13.000Z,91.05
2022-08-28T03:31:13.000Z,91.15
2022-08-28T03:32:13.000Z,91.25
2022-08-28T03:33:13.000Z,91.35
2022-08-28T03:34:13.000Z,91.35
2022-08-28T03:35:13.000Z,91.15
2022-08-28T03:36:14.000Z,91.25
2022-08-28T03:37:14.000Z,91.55
2022-08-28T03:38:14.000Z,91.66
2022-08-28T03:39:14.000Z,91.19
2022-08-28T03:40:14.000Z,91.50
2022-08-28T03:41:14.000Z,91.50
2022-08-28T03:42:14.000Z,91.60
2022-08-28T03:43:14.000Z,91.39
2022-08-28T03:44:14.000Z,91.60
2022-08-28T03:45:14.000Z,91.80
2022-08-28T03:46:14.000Z,91.39
2022-08-28T03:47:14.000Z,91.70
2022-08-28T03:48:14.000Z,91.80
2022-08-28T03:49:14.000Z,91.90
2022-08-28T03:50:15.000Z,92.10
2022-08-28T03:51:15.000Z,92.31
2022-08-28T03:52:15.000Z,92.51
2022-08-28T03:53:15.000Z,91.90
2022-08-28T03:54:15.000Z,92.21
2022-08-28T03:54:15.000Z,92.21
2022-08-28T03:55:15.000Z,92.41
2022-08-28T03:55:15.000Z,92.41
2022-08-28T03:56:15.000Z,92.21
2022-08-28T03:56:15.000Z,92.21
2022-08-28T03:57:15.000Z,92.51
2022-08-28T03:57:15.000Z,92.51
2022-08-28T03:58:15.000Z,92.61
2022-08-28T03:58:15.000Z,92.61
2022-08-28T03:59:15.000Z,92.61
2022-08-28T04:00:15.000Z,92.51
2022-08-28T04:01:15.000Z,92.76
2022-08-28T04:02:15.000Z,92.86
2022-08-28T04:03:16.000Z,92.71
2022-08-28T04:04:16.000Z,92.61
2022-08-28T04:05:16.000Z,92.65
2022-08-28T04:06:16.000Z,92.35
2022-08-28T04:07:16.000Z,92.55
2022-08-28T04:08:16.000Z,92.61
2022-08-28T04:09:16.000Z,92.61
2022-08-28T04:10:16.000Z,92.96
2022-08-28T04:11:16.000Z,92.65
2022-08-28T04:12:16.000Z,92.71
2022-08-28T04:13:16.000Z,92.71
2022-08-28T04:14:16.000Z,92.41
2022-08-28T04:15:16.000Z,91.90
2022-08-28T04:16:17.000Z,92.00
2022-08-28T04:17:17.000Z,91.80
2022-08-28T04:18:17.000Z,91.80
2022-08-28T04:19:17.000Z,91.50
2022-08-28T04:20:17.000Z,91.39
2022-08-28T04:21:17.000Z,91.19
2022-08-28T04:22:17.000Z,90.58
2022-08-28T04:23:17.000Z,90.69
2022-08-28T04:24:17.000Z,90.99
2022-08-28T04:25:17.000Z,90.18
2022-08-28T04:26:17.000Z,90.58
2022-08-28T04:27:17.000Z,90.12
2022-08-28T04:28:18.000Z,90.28
2022-08-28T04:29:18.000Z,90.58
2022-08-28T04:30:18.000Z,91.19
2022-08-28T04:31:18.000Z,90.28
2022-08-28T04:32:18.000Z,90.48
2022-08-28T04:33:18.000Z,90.58
2022-08-28T04:34:18.000Z,90.79
2022-08-28T04:35:18.000Z,90.58
2022-08-28T04:36:18.000Z,90.48
2022-08-28T04:37:18.000Z,90.79
2022-08-28T04:38:18.000Z,90.48
2022-08-28T04:39:18.000Z,90.58
2022-08-28T04:40:18.000Z,90.48
2022-08-28T04:41:19.000Z,90.58
2022-08-28T04:42:19.000Z,90.89
2022-08-28T04:43:19.000Z,90.89
2022-08-28T04:44:19.000Z,90.89
2022-08-28T04:45:19.000Z,90.69
2022-08-28T04:46:19.000Z,90.38
2022-08-28T04:47:19.000Z,90.28
2022-08-28T04:48:19.000Z,90.99
2022-08-28T04:49:19.000Z,90.89
2022-08-28T04:50:19.000Z,90.99
2022-08-28T04:51:19.000Z,91.50
2022-08-28T04:52:19.000Z,90.89
2022-08-28T04:53:20.000Z,90.89
2022-08-28T04:54:20.000Z,90.99
2022-08-28T04:55:20.000Z,90.99
2022-08-28T04:56:20.000Z,90.89
2022-08-28T04:57:20.000Z,90.79
2022-08-28T04:58:20.000Z,90.89
2022-08-28T04:59:20.000Z,91.19
2022-08-28T05:00:20.000Z,90.79
2022-08-28T05:01:20.000Z,90.58
2022-08-28T05:02:20.000Z,90.79
2022-08-28T05:03:20.000Z,91.09
2022-08-28T05:04:20.000Z,90.79
2022-08-28T05:05:20.000Z,90.18
2022-08-28T05:06:21.000Z,90.69
2022-08-28T05:07:21.000Z,90.48
2022-08-28T05:08:21.000Z,90.58
2022-08-28T05:09:21.000Z,90.69
2022-08-28T05:10:21.000Z,90.58
2022-08-28T05:11:21.000Z,90.28
2022-08-28T05:12:21.000Z,90.58
2022-08-28T05:13:21.000Z,90.79
2022-08-28T05:14:21.000Z,90.58
2022-08-28T05:15:21.000Z,91.09
2022-08-28T05:16:21.000Z,90.58
2022-08-28T05:17:21.000Z,90.48
2022-08-28T05:18:21.000Z,90.58
2022-08-28T05:19:22.000Z,90.89
2022-08-28T05:20:22.000Z,90.69
2022-08-28T05:21:22.000Z,90.79
2022-08-28T05:22:22.000Z,90.89
2022-08-28T05:23:22.000Z,90.58
2022-08-28T05:24:22.000Z,89.87
2022-08-28T05:25:22.000Z,90.08
2022-08-28T05:26:22.000Z,89.98
2022-08-28T05:27:22.000Z,90.38
2022-08-28T05:28:22.000Z,89.67
2022-08-28T05:29:22.000Z,90.64
2022-08-28T05:30:22.000Z,90.14
2022-08-28T05:31:22.000Z,89.83
2022-08-28T05:32:23.000Z,90.75
2022-08-28T05:33:23.000Z,90.03
2022-08-28T05:34:23.000Z,90.24
2022-08-28T05:35:23.000Z,90.24
2022-08-28T05:36:23.000Z,89.53
2022-08-28T05:37:23.000Z,90.03
2022-08-28T05:38:23.000Z,89.87
2022-08-28T05:39:23.000Z,89.94
2022-08-28T05:40:23.000Z,90.24
2022-08-28T05:41:23.000Z,90.34
2022-08-28T05:42:23.000Z,90.95
2022-08-28T05:43:23.000Z,90.84
2022-08-28T05:44:23.000Z,90.75
2022-08-28T05:45:24.000Z,90.69
2022-08-28T05:46:24.000Z,90.89
2022-08-28T05:47:24.000Z,91.15
2022-08-28T05:48:24.000Z,91.19
2022-08-28T05:49:24.000Z,90.89
2022-08-28T05:50:24.000Z,91.35
2022-08-28T05:51:24.000Z,91.46
2022-08-28T05:52:24.000Z,91.60
2022-08-28T05:53:24.000Z,91.35
2022-08-28T05:54:24.000Z,91.75
2022-08-28T05:55:24.000Z,90.89
2022-08-28T05:56:24.000Z,91.09
2022-08-28T05:57:24.000Z,90.99
2022-08-28T05:58:25.000Z,91.50
2022-08-28T05:59:25.000Z,91.46
2022-08-28T06:00:25.000Z,91.09
2022-08-28T06:01:25.000Z,91.30
2022-08-28T06:02:25.000Z,90.38
2022-08-28T06:03:25.000Z,90.38
2022-08-28T06:04:25.000Z,90.89
2022-08-28T06:05:25.000Z,90.79
2022-08-28T06:06:25.000Z,90.79
2022-08-28T06:07:25.000Z,91.39
2022-08-28T06:08:25.000Z,90.79
2022-08-28T06:09:25.000Z,90.58
2022-08-28T06:10:25.000Z,90.69
2022-08-28T06:11:26.000Z,90.38
2022-08-28T06:12:26.000Z,90.69
2022-08-28T06:13:26.000Z,90.79
2022-08-28T06:14:26.000Z,91.19
2022-08-28T06:15:26.000Z,90.58
2022-08-28T06:16:26.000Z,90.08
2022-08-28T06:17:26.000Z,90.58
2022-08-28T06:18:26.000Z,90.79
2022-08-28T06:19:26.000Z,91.30
2022-08-28T06:20:26.000Z,91.39
2022-08-28T06:21:26.000Z,91.60
2022-08-28T06:22:26.000Z,91.50
2022-08-28T06:23:26.000Z,90.58
2022-08-28T06:24:26.000Z,90.69
2022-08-28T06:25:27.000Z,90.58
2022-08-28T06:26:27.000Z,90.38
2022-08-28T06:27:27.000Z,90.89
2022-08-28T06:28:27.000Z,89.87
2022-08-28T06:29:27.000Z,89.98
2022-08-28T06:30:27.000Z,90.08
2022-08-28T06:31:27.000Z,90.28
2022-08-28T06:32:27.000Z,90.89
2022-08-28T06:33:27.000Z,91.39
2022-08-28T06:34:27.000Z,91.30
2022-08-28T06:35:27.000Z,91.19
2022-08-28T06:36:27.000Z,90.58
2022-08-28T06:37:27.000Z,90.89
2022-08-28T06:38:28.000Z,90.89
2022-08-28T06:39:28.000Z,91.19
2022-08-28T06:40:28.000Z,90.69
2022-08-28T06:41:28.000Z,90.58
2022-08-28T06:42:28.000Z,89.77
2022-08-28T06:43:28.000Z,90.79
2022-08-28T06:44:28.000Z,90.48
2022-08-28T06:45:28.000Z,90.89
2022-08-28T06:46:28.000Z,90.58
2022-08-28T06:47:28.000Z,90.28
2022-08-28T06:48:28.000Z,90.58
2022-08-28T06:49:28.000Z,90.95
2022-08-28T06:50:28.000Z,90.58
2022-08-28T06:51:29.000Z,90.99
2022-08-28T06:52:29.000Z,90.69
2022-08-28T06:53:29.000Z,91.19
2022-08-28T06:54:29.000Z,90.99
2022-08-28T06:55:29.000Z,90.79
2022-08-28T06:56:29.000Z,90.18
2022-08-28T06:57:29.000Z,90.38
2022-08-28T06:58:29.000Z,90.99
2022-08-28T06:59:29.000Z,91.19
2022-08-28T07:00:29.000Z,91.19
2022-08-28T07:01:29.000Z,90.58
2022-08-28T07:02:29.000Z,91.19
2022-08-28T07:03:29.000Z,90.48
2022-08-28T07:04:29.000Z,91.09
2022-08-28T07:05:30.000Z,91.19
2022-08-28T07:06:30.000Z,91.09
2022-08-28T07:07:30.000Z,90.69
2022-08-28T07:08:30.000Z,90.28
2022-08-28T07:09:30.000Z,90.69
2022-08-28T07:10:30.000Z,90.95
2022-08-28T07:11:30.000Z,90.64
2022-08-28T07:12:30.000Z,90.95
2022-08-28T07:13:30.000Z,90.54
2022-08-28T07:14:30.000Z,90.24
2022-08-28T07:15:30.000Z,89.73
2022-08-28T07:16:30.000Z,89.73
2022-08-28T07:17:30.000Z,90.95
2022-08-28T07:18:31.000Z,90.44
2022-08-28T07:19:31.000Z,90.84
2022-08-28T07:20:31.000Z,90.75
2022-08-28T07:21:31.000Z,91.05
2022-08-28T07:22:31.000Z,90.44
2022-08-28T07:23:31.000Z,90.03
2022-08-28T07:24:31.000Z,90.60
2022-08-28T07:25:31.000Z,89.79
2022-08-28T07:26:31.000Z,88.98
2022-08-28T07:27:31.000Z,89.85
2022-08-28T07:28:31.000Z,89.34
2022-08-28T07:29:31.000Z,89.04
2022-08-28T07:30:31.000Z,88.59
2022-08-28T07:31:32.000Z,88.90
2022-08-28T07:32:32.000Z,88.19
2022-08-28T07:33:32.000Z,86.57
2022-08-28T07:34:32.000Z,87.04
2022-08-28T07:35:32.000Z,86.02
2022-08-28T07:36:32.000Z,87.04
2022-08-28T07:37:32.000Z,87.74
2022-08-28T07:38:32.000Z,86.13
2022-08-28T07:39:32.000Z,87.44
2022-08-28T07:40:32.000Z,86.02
2022-08-28T07:41:32.000Z,85.72
2022-08-28T07:42:32.000Z,86.22
2022-08-28T07:43:32.000Z,85.62
2022-08-28T07:44:32.000Z,86.83
2022-08-28T07:45:33.000Z,87.24
2022-08-28T07:46:33.000Z,87.70
2022-08-28T07:47:33.000Z,87.40
2022-08-28T07:48:33.000Z,85.99
2022-08-28T07:49:33.000Z,86.69
2022-08-28T07:50:33.000Z,85.88
2022-08-28T07:51:33.000Z,85.08
2022-08-28T07:52:33.000Z,86.49
2022-08-28T07:53:33.000Z,85.28
2022-08-28T07:54:33.000Z,86.39
2022-08-28T07:55:33.000Z,87.76
2022-08-28T07:56:33.000Z,85.64
2022-08-28T07:57:33.000Z,84.93
2022-08-28T07:58:33.000Z,84.89
2022-08-28T07:59:33.000Z,84.99
2022-08-28T08:00:34.000Z,84.69
2022-08-28T08:01:34.000Z,85.10
2022-08-28T08:02:34.000Z,83.92
2022-08-28T08:03:34.000Z,84.49
2022-08-28T08:04:34.000Z,84.79
2022-08-28T08:05:34.000Z,85.70
2022-08-28T08:06:34.000Z,85.80
2022-08-28T08:07:34.000Z,85.36
2022-08-28T08:08:34.000Z,83.84
2022-08-28T08:09:34.000Z,83.84
2022-08-28T08:10:34.000Z,83.14
2022-08-28T08:11:34.000Z,83.54
2022-08-28T08:12:34.000Z,82.73
2022-08-28T08:13:34.000Z,82.64
2022-08-28T08:14:34.000Z,82.03
2022-08-28T08:15:34.000Z,81.12
2022-08-28T08:16:34.000Z,82.53
2022-08-28T08:17:35.000Z,83.18
2022-08-28T08:18:35.000Z,82.64
2022-08-28T08:19:35.000Z,82.47
2022-08-28T08:20:35.000Z,82.98
2022-08-28T08:21:35.000Z,82.64
2022-08-28T08:22:35.000Z,83.14
2022-08-28T08:23:35.000Z,83.91
2022-08-28T08:24:35.000Z,83.00
2022-08-28T08:25:35.000Z,83.56
2022-08-28T08:26:35.000Z,81.38
2022-08-28T08:27:35.000Z,81.48
2022-08-28T08:28:35.000Z,81.48
2022-08-28T08:29:35.000Z,80.78
2022-08-28T08:30:35.000Z,82.50
2022-08-28T08:31:35.000Z,82.19
2022-08-28T08:32:35.000Z,81.38
2022-08-28T08:33:35.000Z,81.28
2022-08-28T08:34:35.000Z,80.98
2022-08-28T08:35:36.000Z,81.89
2022-08-28T08:36:36.000Z,81.68
2022-08-28T08:37:36.000Z,82.96
2022-08-28T08:38:36.000Z,81.75
2022-08-28T08:39:36.000Z,82.45
2022-08-28T08:40:36.000Z,78.99
2022-08-28T08:41:36.000Z,79.39
2022-08-28T08:42:36.000Z,79.29
2022-08-28T08:43:36.000Z,81.21
2022-08-28T08:44:36.000Z,79.09
2022-08-28T08:45:36.000Z,78.79
2022-08-28T08:46:36.000Z,78.89
2022-08-28T08:47:36.000Z,80.80
2022-08-28T08:48:36.000Z,80.10
2022-08-28T08:49:36.000Z,79.49
2022-08-28T08:50:36.000Z,78.35
2022-08-28T08:51:36.000Z,79.80
2022-08-28T08:52:36.000Z,80.36
2022-08-28T08:53:36.000Z,80.10
2022-08-28T08:54:36.000Z,81.67
2022-08-28T08:55:36.000Z,78.75
2022-08-28T08:56:37.000Z,79.56
2022-08-28T08:57:37.000Z,78.35
2022-08-28T08:58:37.000Z,80.16
2022-08-28T08:59:37.000Z,79.25
2022-08-28T09:00:37.000Z,79.36
2022-08-28T09:01:37.000Z,80.16
2022-08-28T09:02:37.000Z,79.46
2022-08-28T09:03:37.000Z,77.34
2022-08-28T09:04:37.000Z,78.35
2022-08-28T09:05:37.000Z,77.24
2022-08-28T09:06:37.000Z,78.96
2022-08-28T09:07:37.000Z,79.05
2022-08-28T09:08:37.000Z,78.25
2022-08-28T09:09:37.000Z,78.65
2022-08-28T09:10:37.000Z,78.45
2022-08-28T09:11:37.000Z,79.05
2022-08-28T09:12:37.000Z,76.94
2022-08-28T09:13:37.000Z,77.40
2022-08-28T09:14:37.000Z,76.80
2022-08-28T09:15:37.000Z,80.32
2022-08-28T09:16:37.000Z,79.42
2022-08-28T09:17:37.000Z,78.88
2022-08-28T09:18:38.000Z,77.20
2022-08-28T09:19:38.000Z,77.61
2022-08-28T09:20:38.000Z,77.31
2022-08-28T09:21:38.000Z,77.40
2022-08-28T09:22:38.000Z,79.38
2022-08-28T09:23:38.000Z,77.67
2022-08-28T09:24:38.000Z,77.97
2022-08-28T09:25:38.000Z,76.83
2022-08-28T09:26:38.000Z,77.37
2022-08-28T09:27:38.000Z,75.35
2022-08-28T09:28:38.000Z,76.06
2022-08-28T09:29:38.000Z,75.76
2022-08-28T09:30:38.000Z,77.57
2022-08-28T09:31:38.000Z,75.26
2022-08-28T09:32:38.000Z,74.35
2022-08-28T09:33:38.000Z,76.56
2022-08-28T09:34:38.000Z,75.82
2022-08-28T09:35:38.000Z,76.43
2022-08-28T09:36:38.000Z,76.12
2022-08-28T09:37:38.000Z,75.02
2022-08-28T09:38:38.000Z,75.52
2022-08-28T09:39:38.000Z,75.12
2022-08-28T09:39:38.000Z,75.12
2022-08-28T09:40:38.000Z,73.41
2022-08-28T09:40:38.000Z,73.41
2022-08-28T09:41:38.000Z,74.82
2022-08-28T09:41:38.000Z,74.82
2022-08-28T09:42:38.000Z,75.02
2022-08-28T09:42:38.000Z,75.02
2022-08-28T09:43:38.000Z,74.62
2022-08-28T09:43:38.000Z,74.62
2022-08-28T09:44:39.000Z,73.91
2022-08-28T09:45:39.000Z,75.99
2022-08-28T09:46:39.000Z,75.29
2022-08-28T09:47:39.000Z,72.17
2022-08-28T09:48:39.000Z,72.17
2022-08-28T09:49:39.000Z,72.17
2022-08-28T09:50:39.000Z,72.77
2022-08-28T09:51:39.000Z,71.06
2022-08-28T09:52:39.000Z,73.47
2022-08-28T09:53:39.000Z,70.86
2022-08-28T09:54:39.000Z,71.67
2022-08-28T09:55:39.000Z,72.07
2022-08-28T09:56:39.000Z,71.73
2022-08-28T09:57:39.000Z,70.63
2022-08-28T09:58:39.000Z,69.62
2022-08-28T09:59:39.000Z,70.43
2022-08-28T10:00:39.000Z,70.43
2022-08-28T10:01:39.000Z,71.94
2022-08-28T10:02:39.000Z,69.02
2022-08-28T10:03:39.000Z,72.33
2022-08-28T10:04:39.000Z,69.92
2022-08-28T10:05:39.000Z,72.00
2022-08-28T10:06:39.000Z,71.30
2022-08-28T10:07:39.000Z,72.10
2022-08-28T10:08:39.000Z,71.09
2022-08-28T10:09:39.000Z,70.50
2022-08-28T10:10:39.000Z,68.99
2022-08-28T10:11:40.000Z,71.40
2022-08-28T10:12:40.000Z,71.30
2022-08-28T10:13:40.000Z,70.59
2022-08-28T10:14:40.000Z,69.29
2022-08-28T10:15:40.000Z,69.79
2022-08-28T10:16:40.000Z,68.79
2022-08-28T10:17:40.000Z,69.96
2022-08-28T10:18:40.000Z,67.85
2022-08-28T10:19:40.000Z,68.99
2022-08-28T10:20:40.000Z,70.39
2022-08-28T10:21:40.000Z,71.86
2022-08-28T10:22:40.000Z,70.26
2022-08-28T10:23:40.000Z,70.36
2022-08-28T10:24:40.000Z,72.13
2022-08-28T10:25:40.000Z,67.22
2022-08-28T10:26:40.000Z,67.02
2022-08-28T10:27:40.000Z,67.61
2022-08-28T10:28:40.000Z,68.15
2022-08-28T10:29:40.000Z,69.42
2022-08-28T10:30:40.000Z,67.61
2022-08-28T10:31:40.000Z,68.22
2022-08-28T10:32:40.000Z,68.62
2022-08-28T10:33:40.000Z,67.02
2022-08-28T10:34:40.000Z,69.62
2022-08-28T10:35:40.000Z,69.53
2022-08-28T10:36:40.000Z,67.82
2022-08-28T10:37:41.000Z,68.42
2022-08-28T10:38:41.000Z,68.02
2022-08-28T10:39:41.000Z,67.61
2022-08-28T10:40:41.000Z,67.52
2022-08-28T10:41:41.000Z,66.91
2022-08-28T10:42:41.000Z,68.02
2022-08-28T10:43:41.000Z,66.61
2022-08-28T10:44:41.000Z,66.31
2022-08-28T10:45:41.000Z,67.72
2022-08-28T10:46:41.000Z,67.52
2022-08-28T10:47:41.000Z,67.52
2022-08-28T10:48:41.000Z,66.71
2022-08-28T10:49:41.000Z,66.61
2022-08-28T10:50:41.000Z,66.58
2022-08-28T10:51:41.000Z,66.48
2022-08-28T10:52:41.000Z,70.19
2022-08-28T10:53:41.000Z,66.99
2022-08-28T10:54:41.000Z,65.88
2022-08-28T10:55:41.000Z,67.05
2022-08-28T10:56:41.000Z,65.95
2022-08-28T10:57:41.000Z,67.35
2022-08-28T10:58:41.000Z,67.45
2022-08-28T10:59:41.000Z,65.75
2022-08-28T11:00:41.000Z,68.15
2022-08-28T11:01:41.000Z,65.65
2022-08-28T11:02:41.000Z,66.95
2022-08-28T11:03:41.000Z,66.65
2022-08-28T11:04:41.000Z,67.05
2022-08-28T11:05:41.000Z,65.35
2022-08-28T11:06:42.000Z,64.65
2022-08-28T11:07:42.000Z,67.15
2022-08-28T11:08:42.000Z,67.05
2022-08-28T11:09:42.000Z,67.52
2022-08-28T11:10:42.000Z,65.92
2022-08-28T11:11:42.000Z,65.92
2022-08-28T11:12:42.000Z,66.32
2022-08-28T11:13:42.000Z,67.02
2022-08-28T11:14:42.000Z,65.72
2022-08-28T11:15:42.000Z,65.52
2022-08-28T11:16:42.000Z,65.92
2022-08-28T11:17:42.000Z,63.81
2022-08-28T11:18:42.000Z,64.62
2022-08-28T11:19:42.000Z,65.31
2022-08-28T11:20:42.000Z,65.22
2022-08-28T11:21:42.000Z,64.92
2022-08-28T11:22:42.000Z,65.31
2022-08-28T11:23:42.000Z,65.62
2022-08-28T11:24:42.000Z,64.89
2022-08-28T11:25:42.000Z,64.48
2022-08-28T11:26:42.000Z,62.68
2022-08-28T11:27:42.000Z,65.19
2022-08-28T11:28:42.000Z,63.08
2022-08-28T11:29:42.000Z,64.28
2022-08-28T11:30:42.000Z,63.28
2022-08-28T11:31:42.000Z,64.09
2022-08-28T11:32:42.000Z,63.78
2022-08-28T11:33:42.000Z,64.78
2022-08-28T11:34:42.000Z,62.98
2022-08-28T11:35:42.000Z,62.28
2022-08-28T11:36:42.000Z,63.68
2022-08-28T11:37:42.000Z,63.18
2022-08-28T11:38:42.000Z,66.19
2022-08-28T11:39:42.000Z,63.98
2022-08-28T11:40:42.000Z,61.88
2022-08-28T11:41:42.000Z,63.89
2022-08-28T11:42:43.000Z,63.78
2022-08-28T11:43:43.000Z,64.39
2022-08-28T11:44:43.000Z,63.45
2022-08-28T11:45:43.000Z,63.45
2022-08-28T11:46:43.000Z,62.85
2022-08-28T11:47:43.000Z,62.55
2022-08-28T11:48:43.000Z,64.32
2022-08-28T11:49:43.000Z,63.22
2022-08-28T11:50:43.000Z,64.32
2022-08-28T11:51:43.000Z,64.39
2022-08-28T11:52:43.000Z,61.42
2022-08-28T11:53:43.000Z,61.92
2022-08-28T11:54:43.000Z,61.92
2022-08-28T11:55:43.000Z,61.52
2022-08-28T11:56:43.000Z,61.82
2022-08-28T11:57:43.000Z,61.82
2022-08-28T11:58:43.000Z,62.52
2022-08-28T11:59:43.000Z,64.42
2022-08-28T12:00:43.000Z,62.02
2022-08-28T12:01:43.000Z,62.09
2022-08-28T12:02:43.000Z,61.40
2022-08-28T12:03:43.000Z,59.30
2022-08-28T12:04:43.000Z,61.40
2022-08-28T12:05:43.000Z,59.22
2022-08-28T12:06:43.000Z,60.32
2022-08-28T12:07:43.000Z,61.52
2022-08-28T12:08:43.000Z,61.22
2022-08-28T12:09:43.000Z,63.19
2022-08-28T12:10:43.000Z,62.19
2022-08-28T12:11:43.000Z,61.19
2022-08-28T12:12:43.000Z,60.39
2022-08-28T12:13:43.000Z,63.89
2022-08-28T12:14:43.000Z,58.69
2022-08-28T12:14:43.000Z,58.69
2022-08-28T12:15:43.000Z,59.99
2022-08-28T12:15:43.000Z,59.99
2022-08-28T12:16:43.000Z,62.29
2022-08-28T12:16:43.000Z,62.29
2022-08-28T12:17:43.000Z,61.99
2022-08-28T12:17:43.000Z,61.99
2022-08-28T12:18:43.000Z,59.09
2022-08-28T12:18:43.000Z,59.09
2022-08-28T12:19:43.000Z,58.59
2022-08-28T12:20:43.000Z,60.19
2022-08-28T12:21:43.000Z,61.69
2022-08-28T12:22:43.000Z,60.77
2022-08-28T12:23:43.000Z,58.67
2022-08-28T12:24:43.000Z,61.57
2022-08-28T12:25:43.000Z,60.57
2022-08-28T12:26:43.000Z,59.97
2022-08-28T12:27:43.000Z,61.57
2022-08-28T12:28:43.000Z,58.99
2022-08-28T12:29:43.000Z,59.49
2022-08-28T12:30:43.000Z,58.29
2022-08-28T12:31:43.000Z,59.39
2022-08-28T12:32:43.000Z,57.50